createdAt,value
2022-08-31T00:00:36.635Z,17.02
2022-08-31T00:03:24.383Z,17.16
2022-08-31T00:06:02.698Z,17.04
2022-08-31T00:08:31.231Z,17.18
2022-08-31T00:10:59.612Z,17.43
2022-08-31T00:13:29.847Z,17.19
2022-08-31T00:15:58.604Z,17.07
2022-08-31T00:18:26.936Z,17.07
2022-08-31T00:20:55.793Z,16.96
2022-08-31T00:23:24.071Z,17.09
2022-08-31T00:25:53.000Z,17.19
2022-08-31T00:28:21.309Z,17.16
2022-08-31T00:30:50.140Z,17.02
2022-08-31T00:33:18.615Z,17.18
2022-08-31T00:35:47.160Z,17.15
2022-08-31T00:38:15.694Z,17.19
2022-08-31T00:40:46.474Z,17.16
2022-08-31T00:43:54.296Z,17.09
2022-08-31T00:46:25.310Z,17.04
2022-08-31T00:48:57.026Z,17.01
2022-08-31T00:51:25.910Z,16.95
2022-08-31T00:53:54.350Z,16.88
2022-08-31T00:56:22.751Z,16.88
2022-08-31T00:58:54.467Z,16.84
2022-08-31T01:01:24.126Z,16.91
2022-08-31T01:03:52.685Z,16.98
2022-08-31T01:06:21.422Z,17.04
2022-08-31T01:08:49.698Z,16.99
2022-08-31T01:11:18.231Z,17.03
2022-08-31T01:13:46.622Z,17.00
2022-08-31T01:16:39.486Z,16.92
2022-08-31T01:19:18.079Z,16.93
2022-08-31T01:21:56.351Z,17.03
2022-08-31T01:24:25.541Z,16.91
2022-08-31T01:26:56.253Z,16.87
2022-08-31T01:29:24.714Z,16.78
2022-08-31T01:31:53.045Z,16.74
2022-08-31T01:34:21.367Z,16.65
2022-08-31T01:36:49.790Z,16.70
2022-08-31T01:39:19.918Z,16.62
2022-08-31T01:41:48.277Z,16.64
2022-08-31T01:44:18.903Z,16.67
2022-08-31T01:46:47.398Z,16.66
2022-08-31T01:49:16.433Z,16.65
2022-08-31T01:51:46.025Z,16.61
2022-08-31T01:54:14.400Z,16.46
2022-08-31T01:56:44.972Z,16.48
2022-08-31T01:59:18.909Z,16.52
2022-08-31T02:01:49.440Z,16.58
2022-08-31T02:04:19.410Z,16.53
2022-08-31T02:06:49.816Z,16.61
2022-08-31T02:09:20.134Z,16.53
2022-08-31T02:11:48.625Z,16.34
2022-08-31T02:14:20.204Z,16.42
2022-08-31T02:16:49.494Z,16.45
2022-08-31T02:19:17.892Z,16.50
2022-08-31T02:21:46.174Z,16.42
2022-08-31T02:24:14.684Z,16.43
2022-08-31T02:26:42.960Z,16.38
2022-08-31T02:29:11.981Z,16.39
2022-08-31T02:31:41.188Z,16.32
2022-08-31T02:34:09.551Z,16.31
2022-08-31T02:36:37.940Z,16.16
2022-08-31T02:39:07.299Z,16.15
2022-08-31T02:41:36.659Z,16.17
2022-08-31T02:44:05.801Z,16.23
2022-08-31T02:46:34.444Z,16.21
2022-08-31T02:49:41.035Z,16.10
2022-08-31T02:52:09.502Z,16.25
2022-08-31T02:54:38.254Z,16.21
2022-08-31T02:57:07.122Z,16.14
2022-08-31T02:59:35.412Z,16.18
2022-08-31T03:02:04.423Z,16.22
2022-08-31T03:04:33.071Z,16.28
2022-08-31T03:07:01.393Z,16.26
2022-08-31T03:09:29.799Z,16.28
2022-08-31T03:11:59.292Z,16.21
2022-08-31T03:14:27.759Z,16.16
2022-08-31T03:16:57.546Z,16.35
2022-08-31T03:19:26.396Z,16.24
2022-08-31T03:21:56.135Z,16.19
2022-08-31T03:24:27.375Z,16.17
2022-08-31T03:26:56.982Z,16.21
2022-08-31T03:29:25.958Z,16.19
2022-08-31T03:32:12.583Z,16.13
2022-08-31T03:34:44.362Z,16.13
2022-08-31T03:37:12.905Z,16.19
2022-08-31T03:39:42.304Z,16.18
2022-08-31T03:42:10.652Z,16.18
2022-08-31T03:44:39.119Z,16.23
2022-08-31T03:47:11.590Z,16.15
2022-08-31T03:49:43.487Z,16.22
2022-08-31T03:52:22.082Z,16.13
2022-08-31T03:55:00.613Z,16.06
2022-08-31T03:57:29.370Z,16.00
2022-08-31T03:59:57.922Z,16.18
2022-08-31T04:02:44.275Z,16.02
2022-08-31T04:05:33.619Z,16.08
2022-08-31T04:08:10.913Z,16.10
2022-08-31T04:10:58.446Z,16.15
2022-08-31T04:13:36.716Z,16.13
2022-08-31T04:16:28.230Z,16.16
2022-08-31T04:18:56.492Z,16.23
2022-08-31T04:21:26.145Z,16.29
2022-08-31T04:23:54.989Z,16.18
2022-08-31T04:26:24.556Z,16.09
2022-08-31T04:28:53.046Z,16.21
2022-08-31T04:31:21.671Z,16.26
2022-08-31T04:33:52.217Z,16.14
2022-08-31T04:36:22.081Z,16.18
2022-08-31T04:38:54.692Z,16.12
2022-08-31T04:41:24.396Z,16.15
2022-08-31T04:43:56.181Z,16.22
2022-08-31T04:46:26.002Z,16.30
2022-08-31T04:48:57.690Z,16.27
2022-08-31T04:51:31.368Z,16.22
2022-08-31T04:53:59.924Z,16.20
2022-08-31T04:56:32.590Z,16.21
2022-08-31T04:59:02.971Z,16.29
2022-08-31T05:01:42.487Z,16.25
2022-08-31T05:04:30.535Z,16.08
2022-08-31T05:06:59.876Z,16.14
2022-08-31T05:09:29.914Z,16.23
2022-08-31T05:11:58.460Z,16.27
2022-08-31T05:14:27.553Z,16.22
2022-08-31T05:17:09.826Z,16.16
2022-08-31T05:19:44.730Z,16.29
2022-08-31T05:22:16.206Z,16.32
2022-08-31T05:24:45.661Z,16.32
2022-08-31T05:27:14.450Z,16.29
2022-08-31T05:29:43.965Z,16.20
2022-08-31T05:32:30.958Z,16.18
2022-08-31T05:35:01.167Z,16.30
2022-08-31T05:37:30.169Z,16.30
2022-08-31T05:39:58.991Z,16.31
2022-08-31T05:42:27.937Z,16.33
2022-08-31T05:44:56.667Z,16.45
2022-08-31T05:47:25.768Z,16.49
2022-08-31T05:49:54.240Z,16.46
2022-08-31T05:52:25.375Z,16.54
2022-08-31T05:54:55.744Z,16.61
2022-08-31T05:57:26.685Z,16.60
2022-08-31T05:59:58.561Z,16.75
2022-08-31T06:02:29.421Z,16.73
2022-08-31T06:05:00.065Z,16.88
2022-08-31T06:07:28.737Z,16.85
2022-08-31T06:10:02.493Z,17.04
2022-08-31T06:12:34.634Z,16.95
2022-08-31T06:15:05.528Z,17.00
2022-08-31T06:17:35.476Z,17.06
2022-08-31T06:20:07.512Z,17.12
2022-08-31T06:22:36.219Z,17.20
2022-08-31T06:25:07.343Z,17.32
2022-08-31T06:27:39.032Z,17.44
2022-08-31T06:30:09.198Z,17.61
2022-08-31T06:32:37.571Z,17.46
2022-08-31T06:35:07.340Z,17.66
2022-08-31T06:38:01.631Z,17.65
2022-08-31T06:40:58.856Z,17.78
2022-08-31T06:43:43.442Z,17.81
2022-08-31T06:46:24.074Z,18.00
2022-08-31T06:49:11.606Z,18.09
2022-08-31T06:51:40.645Z,18.14
2022-08-31T06:54:29.786Z,18.08
2022-08-31T06:57:17.274Z,18.24
2022-08-31T06:59:55.208Z,18.44
2022-08-31T07:02:38.804Z,18.49
2022-08-31T07:05:07.453Z,18.52
2022-08-31T07:07:35.909Z,18.46
2022-08-31T07:10:05.970Z,18.69
2022-08-31T07:12:35.450Z,18.73
2022-08-31T07:15:04.222Z,18.80
2022-08-31T07:17:34.689Z,18.99
2022-08-31T07:20:06.107Z,19.02
2022-08-31T07:22:38.590Z,18.93
2022-08-31T07:25:29.662Z,19.11
2022-08-31T07:27:59.667Z,18.98
2022-08-31T07:30:33.190Z,19.08
2022-08-31T07:33:08.052Z,19.17
2022-08-31T07:35:41.074Z,19.41
2022-08-31T07:38:38.687Z,19.38
2022-08-31T07:41:29.731Z,19.50
2022-08-31T07:43:59.777Z,19.46
2022-08-31T07:46:32.430Z,19.63
2022-08-31T07:49:04.086Z,19.88
2022-08-31T07:51:51.301Z,20.02
2022-08-31T07:54:51.583Z,20.09
2022-08-31T07:57:37.192Z,20.12
2022-08-31T08:00:10.414Z,20.06
2022-08-31T08:02:53.339Z,20.05
2022-08-31T08:05:27.672Z,20.04
2022-08-31T08:08:23.114Z,20.17
2022-08-31T08:10:59.737Z,20.33
2022-08-31T08:13:49.327Z,20.14
2022-08-31T08:16:25.445Z,20.17
2022-08-31T08:19:18.374Z,20.28
2022-08-31T08:21:47.943Z,20.52
2022-08-31T08:24:24.590Z,20.41
2022-08-31T08:27:03.104Z,20.52
2022-08-31T08:29:51.160Z,20.55
2022-08-31T08:32:26.179Z,20.66
2022-08-31T08:34:58.356Z,20.92
2022-08-31T08:37:54.254Z,20.80
2022-08-31T08:40:42.873Z,20.90
2022-08-31T08:43:16.995Z,20.88
2022-08-31T08:45:48.833Z,20.95
2022-08-31T08:48:19.618Z,21.13
2022-08-31T08:50:49.107Z,21.27
2022-08-31T08:53:26.904Z,21.43
2022-08-31T08:56:23.357Z,21.49
2022-08-31T08:58:57.171Z,21.56
2022-08-31T09:01:32.318Z,21.81
2022-08-31T09:04:42.854Z,21.95
2022-08-31T09:08:11.504Z,21.91
2022-08-31T09:10:47.227Z,22.07
2022-08-31T09:13:33.099Z,22.17
2022-08-31T09:16:27.603Z,22.16
2022-08-31T09:19:01.654Z,22.16
2022-08-31T09:21:34.739Z,22.28
2022-08-31T09:24:14.765Z,22.29
2022-08-31T09:27:19.529Z,22.34
2022-08-31T09:29:56.472Z,22.45
2022-08-31T09:32:29.415Z,22.66
2022-08-31T09:35:25.087Z,22.63
2022-08-31T09:38:02.331Z,22.77
2022-08-31T09:40:44.580Z,22.74
2022-08-31T09:43:22.608Z,22.88
2022-08-31T09:46:01.574Z,22.94
2022-08-31T09:51:29.896Z,23.19
2022-08-31T09:54:47.365Z,23.29
2022-08-31T09:57:16.020Z,23.55
2022-08-31T09:59:48.584Z,23.51
2022-08-31T10:02:23.582Z,23.45
2022-08-31T10:05:35.198Z,23.30
2022-08-31T10:08:22.163Z,23.45
2022-08-31T10:10:50.708Z,23.52
2022-08-31T10:13:39.786Z,23.59
2022-08-31T10:16:37.285Z,23.74
2022-08-31T10:19:11.472Z,23.95
2022-08-31T10:21:49.293Z,24.04
2022-08-31T10:24:38.493Z,23.97
2022-08-31T10:27:21.090Z,23.92
2022-08-31T10:29:56.819Z,24.02
2022-08-31T10:32:36.779Z,24.03
2022-08-31T10:35:15.172Z,24.29
2022-08-31T10:37:56.601Z,24.22
2022-08-31T10:40:32.373Z,24.33
2022-08-31T10:43:16.379Z,24.32
2022-08-31T10:45:52.595Z,24.39
2022-08-31T10:48:24.876Z,24.29
2022-08-31T10:51:06.098Z,24.38
2022-08-31T10:53:57.500Z,24.28
2022-08-31T10:56:37.490Z,24.16
2022-08-31T10:59:28.318Z,24.37
2022-08-31T11:02:27.798Z,24.10
2022-08-31T11:05:23.277Z,23.23
2022-08-31T11:08:15.445Z,22.17
2022-08-31T11:10:43.967Z,22.18
2022-08-31T11:13:38.893Z,21.91
2022-08-31T11:16:17.782Z,21.55
2022-08-31T11:19:10.269Z,21.40
2022-08-31T11:21:46.374Z,21.06
2022-08-31T11:24:56.294Z,20.67
2022-08-31T11:27:29.730Z,20.34
2022-08-31T11:30:09.080Z,20.34
2022-08-31T11:32:41.396Z,20.32
2022-08-31T11:35:10.957Z,20.28
2022-08-31T11:37:52.778Z,20.25
2022-08-31T11:40:45.702Z,20.25
2022-08-31T11:43:15.573Z,20.14
2022-08-31T11:45:44.147Z,19.96
2022-08-31T11:48:53.990Z,19.57
2022-08-31T11:51:41.961Z,19.78
2022-08-31T11:54:27.150Z,19.64
2022-08-31T11:56:57.227Z,19.61
2022-08-31T11:59:35.659Z,19.67
2022-08-31T12:02:20.686Z,19.44
2022-08-31T12:04:52.745Z,19.58
2022-08-31T12:07:49.356Z,19.26
2022-08-31T12:10:44.684Z,19.48
2022-08-31T12:13:24.475Z,19.24
2022-08-31T12:16:08.581Z,19.25
2022-08-31T12:19:48.993Z,19.32
2022-08-31T12:23:09.183Z,19.36
2022-08-31T12:26:01.210Z,19.54
2022-08-31T12:28:50.625Z,19.57
2022-08-31T12:31:19.753Z,19.36
2022-08-31T12:34:18.774Z,19.29
2022-08-31T12:36:53.246Z,19.29
2022-08-31T12:39:27.358Z,19.29
2022-08-31T12:42:00.180Z,19.22
2022-08-31T12:44:32.629Z,19.19
2022-08-31T12:47:29.320Z,19.21
2022-08-31T12:50:13.875Z,19.24
2022-08-31T12:53:04.629Z,19.14
2022-08-31T12:55:58.258Z,19.22
2022-08-31T12:58:27.340Z,19.01
2022-08-31T13:01:09.604Z,19.23
2022-08-31T13:03:41.564Z,19.29
2022-08-31T13:06:14.005Z,19.14
2022-08-31T13:09:06.553Z,19.12
2022-08-31T13:11:41.045Z,19.04
2022-08-31T13:14:21.078Z,19.07
2022-08-31T13:17:26.321Z,19.10
2022-08-31T13:19:56.959Z,19.05
2022-08-31T13:22:31.141Z,18.88
2022-08-31T13:25:36.314Z,18.95
2022-08-31T13:28:22.788Z,18.93
2022-08-31T13:31:05.669Z,19.02
2022-08-31T13:33:36.560Z,19.08
2022-08-31T13:36:24.377Z,19.04
2022-08-31T13:38:54.482Z,19.08
2022-08-31T13:41:36.212Z,19.10
2022-08-31T13:44:09.277Z,19.31
2022-08-31T13:46:43.833Z,19.26
2022-08-31T13:49:42.471Z,19.22
2022-08-31T13:52:29.438Z,19.22
2022-08-31T13:55:09.047Z,19.38
2022-08-31T13:57:38.817Z,19.23
2022-08-31T14:00:33.627Z,19.26
2022-08-31T14:03:46.816Z,19.42
2022-08-31T14:06:39.034Z,19.24
2022-08-31T14:09:17.737Z,19.24
2022-08-31T14:11:55.610Z,19.22
2022-08-31T14:14:30.097Z,19.11
2022-08-31T14:16:58.547Z,19.10
2022-08-31T14:19:36.785Z,19.17
2022-08-31T14:22:26.834Z,19.11
2022-08-31T14:24:56.870Z,19.17
2022-08-31T14:27:25.293Z,19.16
2022-08-31T14:29:55.652Z,19.05
2022-08-31T14:32:26.037Z,19.08
2022-08-31T14:34:54.435Z,19.16
2022-08-31T14:37:23.978Z,19.12
2022-08-31T14:39:55.464Z,19.14
2022-08-31T14:42:26.754Z,19.19
2022-08-31T14:44:59.858Z,19.25
2022-08-31T14:47:32.132Z,19.20
2022-08-31T14:50:06.007Z,19.26
2022-08-31T14:52:40.807Z,19.32
2022-08-31T14:55:11.485Z,19.23
2022-08-31T14:57:42.604Z,19.23
2022-08-31T15:00:13.295Z,19.11
2022-08-31T15:02:42.282Z,19.19
2022-08-31T15:05:11.059Z,19.04
2022-08-31T15:07:40.617Z,18.95
2022-08-31T15:10:13.262Z,19.12
2022-08-31T15:12:44.916Z,19.06
2022-08-31T15:15:21.405Z,19.08
2022-08-31T15:17:51.742Z,19.05
2022-08-31T15:20:21.886Z,18.98
2022-08-31T15:22:50.471Z,18.95
2022-08-31T15:25:21.092Z,19.01
2022-08-31T15:27:51.915Z,18.99
2022-08-31T15:30:21.371Z,19.01
2022-08-31T15:32:50.461Z,19.07
2022-08-31T15:35:25.034Z,19.05
2022-08-31T15:37:59.076Z,18.96
2022-08-31T15:40:29.729Z,18.99
2022-08-31T15:43:01.581Z,18.96
2022-08-31T15:45:31.182Z,19.08
2022-08-31T15:48:18.515Z,19.22
2022-08-31T15:50:51.999Z,19.08
2022-08-31T15:53:30.861Z,19.06
2022-08-31T15:56:08.593Z,19.13
2022-08-31T15:58:39.336Z,19.07
2022-08-31T16:01:14.292Z,19.06
2022-08-31T16:03:43.898Z,19.03
2022-08-31T16:06:12.204Z,18.92
2022-08-31T16:08:41.544Z,18.86
2022-08-31T16:11:13.783Z,18.89
2022-08-31T16:13:59.994Z,18.87
2022-08-31T16:16:35.577Z,18.89
2022-08-31T16:19:05.268Z,18.82
2022-08-31T16:21:37.094Z,18.82
2022-08-31T16:24:08.765Z,18.84
2022-08-31T16:26:38.966Z,18.83
2022-08-31T16:29:09.433Z,18.85
2022-08-31T16:31:39.044Z,18.88
2022-08-31T16:34:07.472Z,18.83
2022-08-31T16:36:36.536Z,18.73
2022-08-31T16:39:05.851Z,18.83
2022-08-31T16:41:39.111Z,18.85
2022-08-31T16:44:19.699Z,18.67
2022-08-31T16:46:49.672Z,18.63
2022-08-31T16:49:36.954Z,18.64
2022-08-31T16:52:18.413Z,18.66
2022-08-31T16:54:49.415Z,18.68
2022-08-31T16:57:21.037Z,18.75
2022-08-31T16:59:49.723Z,18.65
2022-08-31T17:02:20.051Z,18.72
2022-08-31T17:04:52.993Z,18.59
2022-08-31T17:07:24.704Z,18.65
2022-08-31T17:09:57.965Z,18.64
2022-08-31T17:12:27.632Z,18.40
2022-08-31T17:14:59.397Z,18.40
2022-08-31T17:17:31.104Z,18.41
2022-08-31T17:20:01.142Z,18.41
2022-08-31T17:22:34.016Z,18.34
2022-08-31T17:25:04.871Z,18.47
2022-08-31T17:27:34.576Z,18.51
2022-08-31T17:30:06.381Z,18.51
2022-08-31T17:32:39.385Z,18.40
2022-08-31T17:35:19.114Z,18.33
2022-08-31T17:37:50.457Z,18.39
2022-08-31T17:40:20.203Z,18.40
2022-08-31T17:42:51.342Z,18.23
2022-08-31T17:45:21.688Z,18.19
2022-08-31T17:47:51.470Z,17.98
2022-08-31T17:50:21.643Z,18.14
2022-08-31T17:52:51.373Z,18.30
2022-08-31T17:55:23.040Z,18.14
2022-08-31T17:57:51.605Z,17.93
2022-08-31T18:00:20.592Z,17.96
2022-08-31T18:02:52.497Z,18.06
2022-08-31T18:05:23.436Z,18.28
2022-08-31T18:07:52.840Z,18.08
2022-08-31T18:10:22.513Z,17.92
2022-08-31T18:12:56.455Z,17.89
2022-08-31T18:15:24.953Z,17.89
2022-08-31T18:17:58.384Z,17.75
2022-08-31T18:20:28.755Z,17.77
2022-08-31T18:23:00.512Z,17.93
2022-08-31T18:25:34.467Z,17.77
2022-08-31T18:28:06.733Z,17.66
2022-08-31T18:30:39.306Z,17.50
2022-08-31T18:33:15.028Z,17.68
2022-08-31T18:35:48.453Z,17.69
2022-08-31T18:38:32.863Z,17.60
2022-08-31T18:41:28.659Z,17.66
2022-08-31T18:44:27.379Z,17.73
2022-08-31T18:47:11.616Z,17.69
2022-08-31T18:49:44.300Z,17.67
2022-08-31T18:52:24.749Z,17.71
2022-08-31T18:54:55.469Z,18.01
2022-08-31T18:57:26.316Z,17.75
2022-08-31T19:00:08.158Z,17.70
2022-08-31T19:02:42.934Z,17.72
2022-08-31T19:05:15.435Z,17.67
2022-08-31T19:08:03.716Z,17.42
2022-08-31T19:10:35.759Z,17.59
2022-08-31T19:13:19.908Z,17.60
2022-08-31T19:15:49.439Z,17.55
2022-08-31T19:18:22.900Z,17.45
2022-08-31T19:20:54.311Z,17.43
2022-08-31T19:23:28.191Z,17.44
2022-08-31T19:25:58.980Z,17.45
2022-08-31T19:28:36.586Z,17.54
2022-08-31T19:31:12.337Z,17.69
2022-08-31T19:33:42.489Z,17.58
2022-08-31T19:36:18.499Z,17.56
2022-08-31T19:38:50.590Z,17.62
2022-08-31T19:41:22.009Z,17.61
2022-08-31T19:44:04.113Z,17.51
2022-08-31T19:46:52.539Z,17.68
2022-08-31T19:49:25.018Z,17.66
2022-08-31T19:52:03.562Z,17.64
2022-08-31T19:54:37.570Z,17.53
2022-08-31T19:57:10.050Z,17.41
2022-08-31T19:59:38.508Z,17.55
2022-08-31T20:02:07.517Z,17.43
2022-08-31T20:04:39.169Z,17.41
2022-08-31T20:07:11.646Z,17.42
2022-08-31T20:10:02.516Z,17.55
2022-08-31T20:12:32.500Z,17.68
2022-08-31T20:15:02.552Z,17.68
2022-08-31T20:17:31.226Z,17.68
2022-08-31T20:20:03.174Z,17.74
2022-08-31T20:22:31.545Z,17.59
2022-08-31T20:25:07.972Z,17.56
2022-08-31T20:27:38.582Z,17.51
2022-08-31T20:30:09.647Z,17.45
2022-08-31T20:32:38.013Z,17.44
2022-08-31T20:35:07.176Z,17.68
2022-08-31T20:37:37.702Z,17.71
2022-08-31T20:40:10.491Z,17.63
2022-08-31T20:42:39.658Z,17.61
2022-08-31T20:45:08.567Z,17.62
2022-08-31T20:47:55.326Z,17.58
2022-08-31T20:50:23.774Z,17.51
2022-08-31T20:52:52.582Z,17.55
2022-08-31T20:55:22.383Z,17.57
2022-08-31T20:57:52.271Z,17.61
2022-08-31T21:00:22.271Z,17.55
2022-08-31T21:02:50.912Z,17.60
2022-08-31T21:05:37.781Z,17.63
2022-08-31T21:08:07.456Z,17.60
2022-08-31T21:10:37.723Z,17.72
2022-08-31T21:13:11.310Z,17.63
2022-08-31T21:15:44.325Z,17.61
2022-08-31T21:18:18.455Z,17.55
2022-08-31T21:20:47.692Z,17.51
2022-08-31T21:23:16.265Z,17.53
2022-08-31T21:25:46.082Z,17.57
2022-08-31T21:28:17.714Z,17.54
2022-08-31T21:30:49.743Z,17.58
2022-08-31T21:33:18.816Z,17.69
2022-08-31T21:35:48.092Z,17.60
2022-08-31T21:38:18.510Z,17.66
2022-08-31T21:40:51.531Z,17.61
2022-08-31T21:43:20.179Z,17.47
2022-08-31T21:45:50.268Z,17.72
2022-08-31T21:48:25.853Z,17.66
2022-08-31T21:50:55.240Z,17.62
2022-08-31T21:53:26.048Z,17.61
2022-08-31T21:55:55.064Z,17.65
2022-08-31T21:58:23.833Z,17.48
2022-08-31T22:00:52.904Z,17.52
2022-08-31T22:03:22.627Z,17.57
2022-08-31T22:05:50.951Z,17.52
2022-08-31T22:08:20.155Z,17.51
2022-08-31T22:10:49.326Z,17.54
2022-08-31T22:13:18.350Z,17.51
2022-08-31T22:15:48.204Z,17.53
2022-08-31T22:21:07.265Z,17.33
2022-08-31T22:23:35.921Z,17.49
2022-08-31T22:26:04.573Z,17.49
2022-08-31T22:28:34.278Z,17.50
2022-08-31T22:31:02.804Z,17.37
2022-08-31T22:33:31.485Z,17.36
2022-08-31T22:35:59.878Z,17.39
2022-08-31T22:38:28.299Z,17.45
2022-08-31T22:40:57.139Z,17.49
2022-08-31T22:43:25.457Z,17.46
2022-08-31T22:45:54.754Z,17.37
2022-08-31T22:48:23.225Z,17.34
2022-08-31T22:50:51.577Z,17.39
2022-08-31T22:53:20.455Z,17.57
2022-08-31T22:55:48.767Z,17.41
2022-08-31T22:58:17.156Z,17.50
2022-08-31T23:00:48.327Z,17.36
2022-08-31T23:03:16.879Z,17.27
2022-08-31T23:05:45.907Z,17.20
2022-08-31T23:08:15.984Z,17.22
2022-08-31T23:10:44.872Z,17.27
2022-08-31T23:13:13.872Z,17.34
2022-08-31T23:15:43.046Z,17.38
2022-08-31T23:18:13.667Z,17.31
2022-08-31T23:20:42.086Z,17.33
2022-08-31T23:23:10.680Z,17.35
2022-08-31T23:25:39.453Z,17.29
2022-08-31T23:28:08.909Z,17.27
2022-08-31T23:30:38.307Z,17.26
2022-08-31T23:33:07.729Z,17.25
2022-08-31T23:35:36.027Z,17.31
2022-08-31T23:38:04.948Z,17.45
2022-08-31T23:40:34.384Z,17.37
2022-08-31T23:43:04.212Z,17.38
2022-08-31T23:45:33.513Z,17.32
2022-08-31T23:48:01.970Z,17.35
2022-08-31T23:50:30.218Z,17.28
2022-08-31T23:52:58.965Z,17.25
2022-08-31T23:55:30.421Z,17.33
2022-08-31T23:57:59.451Z,17.33
